createdAt,value
2019-01-09T00:00:50.122Z,99.1
2019-01-09T00:02:50.120Z,99.7
2019-01-09T00:04:50.423Z,99.7
2019-01-09T00:06:50.598Z,99.9
2019-01-09T00:08:50.638Z,99.7
2019-01-09T00:10:50.689Z,99.3
2019-01-09T00:12:50.775Z,99.7
2019-01-09T00:14:50.712Z,99.9
2019-01-09T00:16:49.924Z,99.9
2019-01-09T00:18:49.964Z,100.0
2019-01-09T00:20:50.059Z,100.0
2019-01-09T00:22:50.087Z,99.9
2019-01-09T00:24:50.061Z,99.8
2019-01-09T00:26:50.324Z,100.0
2019-01-09T00:28:50.487Z,100.0
2019-01-09T00:30:50.444Z,100.0
2019-01-09T00:32:50.487Z,100.0
2019-01-09T00:34:50.735Z,100.0
2019-01-09T00:36:49.884Z,100.0
2019-01-09T00:38:49.909Z,100.0
2019-01-09T00:40:49.976Z,100.0
2019-01-09T00:42:49.917Z,100.0
2019-01-09T00:44:49.915Z,100.0
2019-01-09T00:46:50.127Z,100.0
2019-01-09T00:48:50.136Z,100.0
2019-01-09T00:50:50.070Z,100.0
2019-01-09T00:52:50.049Z,100.0
2019-01-09T00:54:50.064Z,99.5
2019-01-09T00:56:50.271Z,99.6
2019-01-09T00:58:50.226Z,98.9
2019-01-09T01:00:50.228Z,98.5
2019-01-09T01:02:50.222Z,97.6
2019-01-09T01:04:50.400Z,98.3
2019-01-09T01:06:50.806Z,98.2
2019-01-09T01:08:49.869Z,97.4
2019-01-09T01:10:49.890Z,96.5
2019-01-09T01:12:49.894Z,96.7
2019-01-09T01:14:49.951Z,97.1
2019-01-09T01:16:50.182Z,97.9
2019-01-09T01:18:50.216Z,99.3
2019-01-09T01:20:50.188Z,100.0
2019-01-09T01:22:50.166Z,100.0
2019-01-09T01:24:50.202Z,100.0
2019-01-09T01:26:50.083Z,100.0
2019-01-09T01:28:50.072Z,100.0
2019-01-09T01:30:50.012Z,100.0
2019-01-09T01:32:50.022Z,100.0
2019-01-09T01:34:50.289Z,100.0
2019-01-09T01:36:50.469Z,100.0
2019-01-09T01:38:50.424Z,100.0
2019-01-09T01:40:49.875Z,100.0
2019-01-09T01:42:49.805Z,99.3
2019-01-09T01:44:49.768Z,99.3
2019-01-09T01:46:49.931Z,98.5
2019-01-09T01:48:49.907Z,97.4
2019-01-09T01:50:50.344Z,96.6
2019-01-09T01:52:50.231Z,97.8
2019-01-09T01:54:50.218Z,98.6
2019-01-09T01:56:50.357Z,99.3
2019-01-09T01:58:50.391Z,100.0
2019-01-09T02:00:50.337Z,100.0
2019-01-09T02:02:50.312Z,100.0
2019-01-09T02:04:50.540Z,100.0
2019-01-09T02:06:50.530Z,100.0
2019-01-09T02:08:50.615Z,100.0
2019-01-09T02:10:50.624Z,100.0
2019-01-09T02:12:50.747Z,100.0
2019-01-09T02:14:49.795Z,100.0
2019-01-09T02:16:50.019Z,100.0
2019-01-09T02:18:50.123Z,100.0
2019-01-09T02:20:50.187Z,100.0
2019-01-09T02:22:50.253Z,100.0
2019-01-09T02:24:50.278Z,100.0
2019-01-09T02:26:50.553Z,100.0
2019-01-09T02:28:50.646Z,100.0
2019-01-09T02:30:49.859Z,100.0
2019-01-09T02:32:49.926Z,100.0
2019-01-09T02:34:50.379Z,100.0
2019-01-09T02:36:50.812Z,100.0
2019-01-09T02:38:49.981Z,100.0
2019-01-09T02:40:52.507Z,100.0
2019-01-09T02:42:50.580Z,100.0
2019-01-09T02:44:50.503Z,100.0
2019-01-09T02:46:50.705Z,100.0
2019-01-09T02:48:50.760Z,100.0
2019-01-09T02:50:49.818Z,100.0
2019-01-09T02:52:49.870Z,100.0
2019-01-09T02:54:49.862Z,100.0
2019-01-09T02:56:50.107Z,100.0
2019-01-09T02:58:50.190Z,100.0
2019-01-09T03:00:50.231Z,100.0
2019-01-09T03:02:50.280Z,100.0
2019-01-09T03:04:50.550Z,100.0
2019-01-09T03:06:50.776Z,100.0
2019-01-09T03:08:49.970Z,100.0
2019-01-09T03:10:50.073Z,100.0
2019-01-09T03:12:50.175Z,100.0
2019-01-09T03:14:50.242Z,100.0
2019-01-09T03:16:50.442Z,100.0
2019-01-09T03:18:50.433Z,100.0
2019-01-09T03:20:50.456Z,100.0
2019-01-09T03:22:50.535Z,100.0
2019-01-09T03:24:50.512Z,100.0
2019-01-09T03:26:50.636Z,100.0
2019-01-09T03:28:50.532Z,100.0
2019-01-09T03:30:50.569Z,100.0
2019-01-09T03:32:50.607Z,100.0
2019-01-09T03:34:49.965Z,100.0
2019-01-09T03:36:50.150Z,100.0
2019-01-09T03:38:50.115Z,100.0
2019-01-09T03:40:50.130Z,100.0
2019-01-09T03:42:50.104Z,100.0
2019-01-09T03:44:50.196Z,100.0
2019-01-09T03:46:50.285Z,100.0
2019-01-09T03:48:50.305Z,100.0
2019-01-09T03:50:50.254Z,100.0
2019-01-09T03:52:50.272Z,100.0
2019-01-09T03:54:50.256Z,100.0
2019-01-09T03:56:50.525Z,100.0
2019-01-09T03:58:50.621Z,100.0
2019-01-09T04:00:50.599Z,100.0
2019-01-09T04:02:50.609Z,100.0
2019-01-09T04:04:49.975Z,100.0
2019-01-09T04:06:50.119Z,100.0
2019-01-09T04:08:50.113Z,100.0
2019-01-09T04:10:50.245Z,100.0
2019-01-09T04:12:50.177Z,100.0
2019-01-09T04:14:50.186Z,100.0
2019-01-09T04:16:50.396Z,100.0
2019-01-09T04:18:50.408Z,100.0
2019-01-09T04:20:50.394Z,100.0
2019-01-09T04:22:50.418Z,100.0
2019-01-09T04:24:50.444Z,100.0
2019-01-09T04:26:50.643Z,100.0
2019-01-09T04:28:50.734Z,100.0
2019-01-09T04:30:50.665Z,100.0
2019-01-09T04:32:50.704Z,100.0
2019-01-09T04:34:50.160Z,100.0
2019-01-09T04:36:52.370Z,100.0
2019-01-09T04:38:50.352Z,100.0
2019-01-09T04:40:50.371Z,100.0
2019-01-09T04:42:50.388Z,100.0
2019-01-09T04:44:50.464Z,100.0
2019-01-09T04:46:49.954Z,100.0
2019-01-09T04:48:50.095Z,100.0
2019-01-09T04:50:50.114Z,100.0
2019-01-09T04:52:50.165Z,100.0
2019-01-09T04:54:50.175Z,100.0
2019-01-09T04:56:50.398Z,100.0
2019-01-09T04:58:50.430Z,100.0
2019-01-09T05:46:49.777Z,100.0
2019-01-09T05:48:50.780Z,100.0
2019-01-09T05:50:49.919Z,100.0
2019-01-09T05:52:49.975Z,100.0
2019-01-09T05:54:49.959Z,100.0
2019-01-09T05:56:50.195Z,100.0
2019-01-09T05:58:50.194Z,100.0
2019-01-09T06:00:50.242Z,100.0
2019-01-09T06:02:50.278Z,100.0
2019-01-09T06:04:50.520Z,100.0
2019-01-09T06:06:50.749Z,100.0
2019-01-09T06:08:50.769Z,100.0
2019-01-09T06:10:50.795Z,100.0
2019-01-09T06:12:49.791Z,100.0
2019-01-09T06:14:49.800Z,100.0
2019-01-09T06:16:50.057Z,100.0
2019-01-09T06:18:50.094Z,100.0
2019-01-09T06:20:50.122Z,100.0
2019-01-09T06:22:50.138Z,100.0
2019-01-09T06:24:50.129Z,100.0
2019-01-09T06:26:50.249Z,100.0
2019-01-09T06:28:50.250Z,100.0
2019-01-09T06:30:50.268Z,100.0
2019-01-09T06:32:50.275Z,100.0
2019-01-09T06:34:50.573Z,100.0
2019-01-09T06:36:50.785Z,100.0
2019-01-09T06:38:49.788Z,100.0
2019-01-09T06:40:50.784Z,100.0
2019-01-09T06:42:50.741Z,100.0
2019-01-09T06:44:49.854Z,100.0
2019-01-09T06:46:50.066Z,100.0
2019-01-09T06:48:49.990Z,100.0
2019-01-09T06:50:49.992Z,100.0
2019-01-09T06:52:49.983Z,100.0
2019-01-09T06:54:50.130Z,100.0
2019-01-09T06:56:50.347Z,100.0
2019-01-09T06:58:50.369Z,100.0
2019-01-09T07:00:50.377Z,100.0
2019-01-09T07:02:50.335Z,100.0
2019-01-09T07:04:50.591Z,100.0
2019-01-09T07:06:49.904Z,100.0
2019-01-09T07:08:49.891Z,100.0
2019-01-09T07:10:49.921Z,100.0
2019-01-09T07:12:49.965Z,100.0
2019-01-09T07:14:49.965Z,100.0
2019-01-09T07:16:50.251Z,100.0
2019-01-09T07:18:50.249Z,100.0
2019-01-09T07:20:50.260Z,100.0
2019-01-09T07:22:50.191Z,100.0
2019-01-09T07:24:50.200Z,100.0
2019-01-09T07:26:50.319Z,100.0
2019-01-09T07:28:50.318Z,100.0
2019-01-09T07:30:50.336Z,100.0
2019-01-09T07:32:50.304Z,100.0
2019-01-09T07:34:50.749Z,100.0
2019-01-09T07:36:49.841Z,100.0
2019-01-09T07:38:49.899Z,100.0
2019-01-09T07:40:49.921Z,100.0
2019-01-09T07:42:50.077Z,100.0
2019-01-09T07:44:50.053Z,100.0
2019-01-09T07:46:50.197Z,100.0
2019-01-09T07:48:50.181Z,100.0
2019-01-09T07:50:50.133Z,100.0
2019-01-09T07:52:50.116Z,100.0
2019-01-09T07:54:50.078Z,100.0
2019-01-09T07:56:50.277Z,100.0
2019-01-09T07:58:50.272Z,100.0
2019-01-09T08:00:50.201Z,100.0
2019-01-09T08:02:50.173Z,100.0
2019-01-09T08:04:50.302Z,100.0
2019-01-09T08:06:50.529Z,100.0
2019-01-09T08:08:50.503Z,100.0
2019-01-09T08:10:50.459Z,100.0
2019-01-09T08:12:50.443Z,100.0
2019-01-09T08:14:50.404Z,100.0
2019-01-09T08:16:50.648Z,100.0
2019-01-09T08:18:50.639Z,100.0
2019-01-09T08:20:50.652Z,100.0
2019-01-09T08:22:50.616Z,100.0
2019-01-09T08:24:50.583Z,100.0
2019-01-09T08:26:49.821Z,100.0
2019-01-09T08:28:49.785Z,100.0
2019-01-09T08:30:49.847Z,100.0
2019-01-09T08:32:49.795Z,100.0
2019-01-09T08:34:50.242Z,100.0
2019-01-09T08:36:50.333Z,100.0
2019-01-09T08:38:50.299Z,100.0
2019-01-09T08:40:50.300Z,100.0
2019-01-09T08:42:50.429Z,100.0
2019-01-09T08:44:50.471Z,100.0
2019-01-09T08:46:50.554Z,100.0
2019-01-09T08:48:50.553Z,99.9
2019-01-09T08:50:50.483Z,99.1
2019-01-09T08:52:50.568Z,98.6
2019-01-09T08:54:50.486Z,97.8
2019-01-09T08:56:50.634Z,97.6
2019-01-09T08:58:50.684Z,97.7
2019-01-09T09:00:50.661Z,97.7
2019-01-09T09:02:50.794Z,97.6
2019-01-09T09:04:50.261Z,97.6
2019-01-09T09:06:50.386Z,97.3
2019-01-09T09:08:50.395Z,97.8
2019-01-09T09:10:50.398Z,97.7
2019-01-09T09:12:50.365Z,97.8
2019-01-09T09:14:50.349Z,97.2
2019-01-09T09:16:50.647Z,96.4
2019-01-09T09:18:50.633Z,96.4
2019-01-09T09:20:50.564Z,97.2
2019-01-09T09:22:50.537Z,97.7
2019-01-09T09:24:50.528Z,97.0
2019-01-09T09:26:50.619Z,97.1
2019-01-09T09:28:50.599Z,97.6
2019-01-09T09:30:50.525Z,98.2
2019-01-09T09:32:50.520Z,98.2
2019-01-09T09:34:49.893Z,97.2
2019-01-09T09:36:50.366Z,97.5
2019-01-09T09:38:50.381Z,97.5
2019-01-09T09:40:50.321Z,97.6
2019-01-09T09:42:50.291Z,97.6
2019-01-09T09:44:50.488Z,96.7
2019-01-09T09:46:50.650Z,96.9
2019-01-09T09:48:50.619Z,96.9
2019-01-09T09:50:50.603Z,97.2
2019-01-09T09:52:50.600Z,96.4
2019-01-09T09:54:50.589Z,96.8
2019-01-09T09:56:49.827Z,96.5
2019-01-09T09:58:49.778Z,96.1
2019-01-09T10:00:49.772Z,96.5
2019-01-09T10:02:50.755Z,96.3
2019-01-09T10:04:50.058Z,96.4
2019-01-09T10:06:50.328Z,96.7
2019-01-09T10:08:50.349Z,96.4
2019-01-09T10:10:50.306Z,96.4
2019-01-09T10:12:50.304Z,97.5
2019-01-09T10:14:50.219Z,97.2
2019-01-09T10:16:50.400Z,97.6
2019-01-09T10:18:50.491Z,97.7
2019-01-09T10:20:50.534Z,99.1
2019-01-09T10:22:50.484Z,99.0
2019-01-09T10:24:50.418Z,100.0
2019-01-09T10:26:50.726Z,100.0
2019-01-09T10:28:50.649Z,100.0
2019-01-09T10:30:50.620Z,100.0
2019-01-09T10:32:50.652Z,100.0
2019-01-09T10:34:50.162Z,100.0
2019-01-09T10:36:50.341Z,100.0
2019-01-09T10:38:50.350Z,100.0
2019-01-09T10:40:50.349Z,100.0
2019-01-09T10:42:50.322Z,100.0
2019-01-09T10:44:50.311Z,100.0
2019-01-09T10:46:50.427Z,99.6
2019-01-09T10:48:50.437Z,98.9
2019-01-09T10:50:50.398Z,97.4
2019-01-09T10:52:50.464Z,97.6
2019-01-09T10:54:50.437Z,97.8
2019-01-09T10:56:50.670Z,97.4
2019-01-09T10:58:50.739Z,97.1
2019-01-09T11:00:50.731Z,96.8
2019-01-09T11:02:50.751Z,95.8
2019-01-09T11:04:50.239Z,96.6
2019-01-09T11:06:50.413Z,96.1
2019-01-09T11:08:50.397Z,95.3
2019-01-09T11:10:50.381Z,95.3
2019-01-09T11:12:50.288Z,95.3
2019-01-09T11:14:50.258Z,96.0
2019-01-09T11:16:50.534Z,94.7
2019-01-09T11:18:50.612Z,95.2
2019-01-09T11:20:50.630Z,95.5
2019-01-09T11:22:50.640Z,95.5
2019-01-09T11:24:50.650Z,93.5
2019-01-09T11:26:49.922Z,93.0
2019-01-09T11:28:50.072Z,93.3
2019-01-09T11:30:50.109Z,92.4
2019-01-09T11:32:50.134Z,91.1
2019-01-09T11:34:50.449Z,90.8
2019-01-09T11:36:50.593Z,91.9
2019-01-09T11:38:56.359Z,92.3
2019-01-09T11:40:50.411Z,92.3
2019-01-09T11:42:50.344Z,91.8
2019-01-09T11:44:50.422Z,91.8
2019-01-09T11:46:50.547Z,90.4
2019-01-09T11:48:50.503Z,90.2
2019-01-09T11:50:50.519Z,89.4
2019-01-09T11:52:50.490Z,89.3
2019-01-09T11:54:50.502Z,88.1
2019-01-09T11:56:50.583Z,88.7
2019-01-09T11:58:50.552Z,88.7
2019-01-09T12:00:50.595Z,88.5
2019-01-09T12:02:50.605Z,87.8
2019-01-09T12:04:50.128Z,88.9
2019-01-09T12:06:50.293Z,88.6
2019-01-09T12:08:50.256Z,88.2
2019-01-09T12:10:50.288Z,88.4
2019-01-09T12:12:50.340Z,87.7
2019-01-09T12:14:50.270Z,88.2
2019-01-09T12:16:50.559Z,87.7
2019-01-09T12:18:50.493Z,87.7
2019-01-09T12:20:50.500Z,89.0
2019-01-09T12:22:50.465Z,88.2
2019-01-09T12:24:50.390Z,87.8
2019-01-09T12:26:50.563Z,87.0
2019-01-09T12:28:54.333Z,87.0
2019-01-09T12:30:50.418Z,87.4
2019-01-09T12:32:50.397Z,87.9
2019-01-09T12:34:50.576Z,88.8
2019-01-09T12:36:49.870Z,88.6
2019-01-09T12:38:49.920Z,90.0
2019-01-09T12:40:49.934Z,90.2
2019-01-09T12:42:49.969Z,91.4
2019-01-09T12:44:50.006Z,91.5
2019-01-09T12:46:50.172Z,91.8
2019-01-09T12:48:50.155Z,92.6
2019-01-09T12:50:50.190Z,91.9
2019-01-09T12:52:50.191Z,90.8
2019-01-09T12:54:50.167Z,91.6
2019-01-09T12:56:50.341Z,91.6
2019-01-09T12:58:50.245Z,92.1
2019-01-09T13:00:50.172Z,90.6
2019-01-09T13:02:50.206Z,90.8
2019-01-09T13:04:50.368Z,91.4
2019-01-09T13:06:50.530Z,92.1
2019-01-09T13:08:50.462Z,92.4
2019-01-09T13:10:50.489Z,93.5
2019-01-09T13:12:52.626Z,94.0
2019-01-09T13:14:50.711Z,94.6
2019-01-09T13:16:49.863Z,96.7
2019-01-09T13:18:49.791Z,96.4
2019-01-09T13:20:49.778Z,97.5
2019-01-09T13:22:50.865Z,97.5
2019-01-09T13:24:49.981Z,98.6
2019-01-09T13:26:50.138Z,98.4
2019-01-09T13:28:50.082Z,99.9
2019-01-09T13:30:50.081Z,99.9
2019-01-09T13:32:50.169Z,100.0
2019-01-09T13:34:50.363Z,100.0
2019-01-09T13:36:50.568Z,100.0
2019-01-09T13:38:50.499Z,100.0
2019-01-09T13:40:49.920Z,100.0
2019-01-09T13:42:49.877Z,100.0
2019-01-09T13:44:49.935Z,100.0
2019-01-09T13:46:50.130Z,100.0
2019-01-09T13:48:50.053Z,100.0
2019-01-09T13:50:50.002Z,100.0
2019-01-09T13:52:50.084Z,100.0
2019-01-09T18:22:50.307Z,100.0
2019-01-09T18:24:50.308Z,100.0
2019-01-09T18:26:50.416Z,100.0
2019-01-09T18:28:50.403Z,100.0
2019-01-09T18:30:50.482Z,100.0
2019-01-09T18:32:49.943Z,100.0
2019-01-09T18:34:50.323Z,100.0
2019-01-09T18:36:50.613Z,100.0
2019-01-09T18:38:50.624Z,100.0
2019-01-09T18:41:02.064Z,100.0
2019-01-09T18:42:50.334Z,100.0
2019-01-09T18:44:50.383Z,100.0
2019-01-09T18:46:50.608Z,100.0
2019-01-09T18:48:51.778Z,100.0
2019-01-09T18:58:50.107Z,100.0
2019-01-09T19:00:50.164Z,100.0
2019-01-09T19:06:51.483Z,100.0
2019-01-09T19:08:49.939Z,100.0
2019-01-09T19:10:49.943Z,100.0
2019-01-09T19:12:51.084Z,100.0
2019-01-09T19:14:50.130Z,100.0
2019-01-09T19:16:50.291Z,99.6
2019-01-09T19:18:50.348Z,99.8
2019-01-09T19:20:50.375Z,100.0
2019-01-09T19:22:50.345Z,99.0
2019-01-09T19:24:50.373Z,98.9
2019-01-09T19:26:50.576Z,98.3
2019-01-09T19:28:50.612Z,98.4
2019-01-09T19:30:50.625Z,97.2
2019-01-09T19:32:50.944Z,98.2
2019-01-09T19:34:50.300Z,97.7
2019-01-09T19:36:50.519Z,97.9
2019-01-09T19:38:50.469Z,97.3
2019-01-09T19:40:50.501Z,97.6
2019-01-09T19:42:50.461Z,97.6
2019-01-09T19:44:50.534Z,97.6
2019-01-09T19:46:49.826Z,98.2
2019-01-09T19:48:49.807Z,98.2
2019-01-09T19:50:49.869Z,98.2
2019-01-09T19:52:49.977Z,98.7
2019-01-09T19:54:50.077Z,98.6
2019-01-09T19:56:50.210Z,98.7
2019-01-09T19:58:50.378Z,98.7
2019-01-09T20:00:50.361Z,99.1
2019-01-09T20:02:50.343Z,99.0
2019-01-09T20:04:50.502Z,99.0
2019-01-09T20:06:50.796Z,99.4
2019-01-09T20:08:50.871Z,99.9
2019-01-09T20:10:50.125Z,99.7
2019-01-09T20:12:50.404Z,99.5
2019-01-09T20:14:50.714Z,99.2
2019-01-09T20:16:50.335Z,99.3
2019-01-09T20:18:50.904Z,99.1
2019-01-09T20:20:50.009Z,99.6
2019-01-09T20:22:50.256Z,99.3
2019-01-09T20:24:50.589Z,98.8
2019-01-09T20:26:50.936Z,98.6
2019-01-09T20:28:50.062Z,97.9
2019-01-09T20:30:50.237Z,97.6
2019-01-09T20:32:50.316Z,97.6
2019-01-09T20:34:50.849Z,97.6
2019-01-09T20:36:50.328Z,97.4
2019-01-09T20:38:50.484Z,97.5
2019-01-09T20:40:50.812Z,98.0
2019-01-09T20:42:50.175Z,97.3
2019-01-09T20:44:50.341Z,96.7
2019-01-09T20:46:50.732Z,97.9
2019-01-09T20:48:50.908Z,98.9
2019-01-09T20:50:50.202Z,98.7
2019-01-09T20:52:50.195Z,97.3
2019-01-09T20:54:50.458Z,97.1
2019-01-09T20:56:50.946Z,96.3
2019-01-09T20:58:50.236Z,96.3
2019-01-09T21:00:50.544Z,96.2
2019-01-09T21:02:50.929Z,95.9
2019-01-09T21:04:50.607Z,95.5
2019-01-09T21:06:50.075Z,95.1
2019-01-09T21:09:00.599Z,96.3
2019-01-09T21:10:50.706Z,96.1
2019-01-09T21:12:50.862Z,96.0
2019-01-09T21:14:50.119Z,95.7
2019-01-09T21:16:50.685Z,95.0
2019-01-09T21:18:50.672Z,95.4
2019-01-09T21:20:50.696Z,95.5
2019-01-09T21:22:50.734Z,95.4
2019-01-09T21:24:49.833Z,95.4
2019-01-09T21:26:50.134Z,95.2
2019-01-09T21:28:50.164Z,94.7
2019-01-09T21:30:50.197Z,94.8
2019-01-09T21:32:50.221Z,94.5
2019-01-09T21:34:50.547Z,95.3
2019-01-09T21:36:50.680Z,95.8
2019-01-09T21:38:49.764Z,95.3
2019-01-09T21:40:49.865Z,95.1
2019-01-09T21:42:49.855Z,95.5
2019-01-09T21:44:49.898Z,95.2
2019-01-09T21:46:50.080Z,94.8
2019-01-09T21:48:50.138Z,94.8
2019-01-09T21:50:50.082Z,94.9
2019-01-09T21:52:50.133Z,94.8
2019-01-09T21:54:50.090Z,95.0
2019-01-09T21:56:50.227Z,95.7
2019-01-09T21:58:50.259Z,95.8
2019-01-09T22:00:50.367Z,95.3
2019-01-09T22:02:50.413Z,95.3
2019-01-09T22:04:49.823Z,95.2
2019-01-09T22:06:50.130Z,95.5
2019-01-09T22:08:50.111Z,95.5
2019-01-09T22:10:50.115Z,95.2
2019-01-09T22:12:50.145Z,94.2
2019-01-09T22:14:50.124Z,94.5
2019-01-09T22:16:50.386Z,94.6
2019-01-09T22:18:50.456Z,94.8
2019-01-09T22:20:50.416Z,94.3
2019-01-09T22:22:50.495Z,95.1
2019-01-09T22:24:50.442Z,94.7
2019-01-09T22:26:50.659Z,95.0
2019-01-09T22:28:50.653Z,94.2
2019-01-09T22:30:50.661Z,94.0
2019-01-09T22:32:50.737Z,94.6
2019-01-09T22:34:50.079Z,94.0
2019-01-09T22:36:50.242Z,94.5
2019-01-09T22:38:50.261Z,94.4
2019-01-09T22:40:50.243Z,94.8
2019-01-09T22:42:50.338Z,94.8
2019-01-09T22:44:50.320Z,94.5
2019-01-09T22:46:50.628Z,94.7
2019-01-09T22:48:50.592Z,95.6
2019-01-09T22:50:50.569Z,95.1
2019-01-09T22:52:50.563Z,95.1
2019-01-09T22:54:50.514Z,95.1
2019-01-09T22:56:50.754Z,94.8
2019-01-09T22:58:49.818Z,94.8
2019-01-09T23:00:49.844Z,94.5
2019-01-09T23:02:49.926Z,94.7
2019-01-09T23:04:50.255Z,94.0
2019-01-09T23:06:50.422Z,94.5
2019-01-09T23:08:50.457Z,94.0
2019-01-09T23:10:57.711Z,94.1
2019-01-09T23:12:49.846Z,94.1
2019-01-09T23:14:49.806Z,93.9
2019-01-09T23:16:50.020Z,94.0
2019-01-09T23:18:50.067Z,94.1
2019-01-09T23:20:50.084Z,94.2
2019-01-09T23:22:50.026Z,94.3
2019-01-09T23:24:50.030Z,94.3
2019-01-09T23:26:50.161Z,94.2
2019-01-09T23:28:50.215Z,94.2
2019-01-09T23:30:50.263Z,94.6
2019-01-09T23:32:50.253Z,94.4
2019-01-09T23:34:50.498Z,94.2
2019-01-09T23:36:50.723Z,94.2
2019-01-09T23:38:50.687Z,94.2
2019-01-09T23:40:49.813Z,94.7
2019-01-09T23:42:49.875Z,95.2
2019-01-09T23:44:49.886Z,94.6
2019-01-09T23:46:50.162Z,94.1
2019-01-09T23:48:50.156Z,94.4
2019-01-09T23:50:50.154Z,94.3
2019-01-09T23:52:50.229Z,94.9
2019-01-09T23:54:50.335Z,95.0
2019-01-09T23:56:50.436Z,94.8
2019-01-09T23:58:50.452Z,94.4
